Time;durP1;ratioP1;P1;durP2;ratioP2;P2;SDS_P1;SDS_P2;PMS_P1;PMS_P2;Temp;Humidity;BMP_temperature;BMP_pressure;BME280_temperature;BME280_humidity;BME280_pressure;Samples;Min_cycle;Max_cycle;Signal;HPM_P1;HPM_P2
2022/04/25 00:00:08;;;;;;;;;;;8.70;96.30;;;;;;5004572;28;19940;-85
2022/04/25 00:02:39;;;;;;;;;;;8.70;96.70;;;;;;5003298;28;19925;-85
2022/04/25 00:05:09;;;;;;;;;;;8.70;96.20;;;;;;5004388;28;19926;-86
2022/04/25 00:07:37;;;;;;;;;;;8.60;96.50;;;;;;5002574;28;19926;-84
2022/04/25 00:10:05;;;;;;;;;;;8.60;96.50;;;;;;4987943;28;19953;-84
2022/04/25 00:12:33;;;;;;;;;;;8.60;96.90;;;;;;4991314;28;20491;-85
2022/04/25 00:15:03;;;;;;;;;;;8.50;97.20;;;;;;4981602;28;19925;-85
2022/04/25 00:17:30;;;;;;;;;;;8.50;97.00;;;;;;5003488;28;19926;-85
2022/04/25 00:19:58;;;;;;;;;;;8.40;97.00;;;;;;4987634;28;19929;-86
2022/04/25 00:22:26;;;;;;;;;;;8.50;97.40;;;;;;5000221;28;19929;-86
2022/04/25 00:24:55;;;;;;;;;;;8.80;97.30;;;;;;5007051;28;19933;-83
2022/04/25 00:27:25;;;;;;;;;;;8.30;97.40;;;;;;5024887;28;19926;-84
2022/04/25 00:29:55;;;;;;;;;;;8.40;97.70;;;;;;4987904;28;19936;-85
2022/04/25 00:32:24;;;;;;;;;;;8.30;97.80;;;;;;4975133;28;19926;-83
2022/04/25 00:34:55;;;;;;;;;;;8.30;98.20;;;;;;4993827;28;19949;-84
2022/04/25 00:37:22;;;;;;;;;;;8.30;98.40;;;;;;5006931;28;19937;-84
2022/04/25 00:39:50;;;;;;;;;;;8.30;98.70;;;;;;4988693;28;19940;-82
2022/04/25 00:42:17;;;;;;;;;;;8.20;98.70;;;;;;5003437;28;20029;-85
2022/04/25 00:44:46;;;;;;;;;;;8.20;99.00;;;;;;5003871;28;19926;-84
2022/04/25 00:47:15;;;;;;;;;;;8.20;99.10;;;;;;4987782;28;19925;-84
2022/04/25 00:49:43;;;;;;;;;;;8.20;99.20;;;;;;4986277;28;19933;-85
2022/04/25 00:52:11;;;;;;;;;;;8.10;99.70;;;;;;5008500;28;19926;-87
2022/04/25 00:54:41;;;;;;;;;;;8.10;99.90;;;;;;5020250;28;19932;-86
2022/04/25 00:57:09;;;;;;;;;;;8.10;99.90;;;;;;4977123;28;19930;-89
2022/04/25 00:59:37;;;;;;;;;;;8.10;99.90;;;;;;5012983;28;19935;-86
2022/04/25 01:02:06;;;;;;;;;;;8.00;99.90;;;;;;5008284;28;19925;-87
2022/04/25 01:04:34;;;;;;;;;;;8.00;99.90;;;;;;5008255;28;19933;-88
2022/04/25 01:07:03;;;;;;;;;;;8.00;99.90;;;;;;5006727;28;19933;-86
2022/04/25 01:09:31;;;;;;;;;;;8.00;99.90;;;;;;5008637;28;19929;-86
2022/04/25 01:11:58;;;;;;;;;;;8.00;99.90;;;;;;5028459;28;19939;-88
2022/04/25 01:14:27;;;;;;;;;;;7.90;99.90;;;;;;5027762;28;20391;-87
2022/04/25 01:16:56;;;;;;;;;;;6.50;99.90;;;;;;4993364;28;19932;-87
2022/04/25 01:19:25;;;;;;;;;;;7.90;99.90;;;;;;5027379;28;19929;-87
2022/04/25 01:22:01;;;;;;;;;;;7.80;99.90;;;;;;5003570;28;19925;-86
2022/04/25 01:27:17;;;;;;;;;;;7.90;99.90;;;;;;5005815;28;19976;-85
2022/04/25 01:29:49;;;;;;;;;;;6.60;99.90;;;;;;4989085;28;19946;-85
2022/04/25 01:32:18;;;;;;;;;;;7.80;99.90;;;;;;4991538;28;19925;-85
2022/04/25 01:34:47;;;;;;;;;;;7.70;99.90;;;;;;4991885;28;19929;-85
2022/04/25 01:37:16;;;;;;;;;;;7.80;99.90;;;;;;5007825;28;19937;-87
2022/04/25 01:39:48;;;;;;;;;;;7.80;99.90;;;;;;5011218;28;19936;-86
2022/04/25 01:42:16;;;;;;;;;;;7.70;99.90;;;;;;5009234;28;19926;-88
2022/04/25 01:44:44;;;;;;;;;;;7.80;99.90;;;;;;5008425;28;19937;-86
2022/04/25 01:47:12;;;;;;;;;;;7.70;99.90;;;;;;4981528;28;19926;-86
2022/04/25 01:49:43;;;;;;;;;;;7.20;99.90;;;;;;5007617;28;19933;-87
2022/04/25 01:52:23;;;;;;;;;;;7.70;99.90;;;;;;5008870;28;19937;-87
2022/04/25 01:55:19;;;;;;;;;;;7.70;99.90;;;;;;5006250;28;19926;-87
2022/04/25 01:57:46;;;;;;;;;;;7.60;99.90;;;;;;4991363;28;19926;-86
2022/04/25 02:00:15;;;;;;;;;;;7.60;99.90;;;;;;4972404;28;19938;-85
2022/04/25 02:02:45;;;;;;;;;;;7.60;99.90;;;;;;5007151;28;19929;-88
2022/04/25 02:05:16;;;;;;;;;;;7.60;99.90;;;;;;5008523;28;19937;-84
2022/04/25 02:07:45;;;;;;;;;;;7.60;99.90;;;;;;4985217;28;19949;-85
2022/04/25 02:10:13;;;;;;;;;;;7.50;99.90;;;;;;5004758;28;19932;-86
2022/04/25 02:12:42;;;;;;;;;;;7.50;99.90;;;;;;5024770;28;19925;-85
2022/04/25 02:15:13;;;;;;;;;;;7.40;99.90;;;;;;5013949;28;19922;-84
2022/04/25 02:17:44;;;;;;;;;;;7.50;99.90;;;;;;5016688;28;19915;-84
2022/04/25 02:20:12;;;;;;;;;;;7.50;99.90;;;;;;5013108;28;19926;-84
2022/04/25 02:22:40;;;;;;;;;;;7.50;99.90;;;;;;5027514;28;19932;-87
2022/04/25 02:25:09;;;;;;;;;;;7.50;99.90;;;;;;5025795;28;19929;-85
2022/04/25 02:27:37;;;;;;;;;;;7.60;99.90;;;;;;5009041;28;19935;-86
2022/04/25 02:30:05;;;;;;;;;;;7.50;99.90;;;;;;4991353;28;19937;-84
2022/04/25 02:32:35;;;;;;;;;;;7.60;99.90;;;;;;5016346;28;19926;-85
2022/04/25 02:35:04;;;;;;;;;;;7.10;99.90;;;;;;4990974;28;19932;-85
2022/04/25 02:37:32;;;;;;;;;;;7.60;99.90;;;;;;4989306;28;19929;-86
2022/04/25 02:39:59;;;;;;;;;;;6.70;99.90;;;;;;4990130;28;19925;-88
2022/04/25 02:42:28;;;;;;;;;;;7.50;99.90;;;;;;5023978;28;20408;-85
2022/04/25 02:45:00;;;;;;;;;;;7.60;99.90;;;;;;5025137;28;19937;-85
2022/04/25 02:47:28;;;;;;;;;;;7.60;99.90;;;;;;4999271;28;20301;-87
2022/04/25 02:49:56;;;;;;;;;;;6.70;99.90;;;;;;5024640;28;19930;-85
2022/04/25 02:52:23;;;;;;;;;;;7.70;99.90;;;;;;5007188;28;20393;-87
2022/04/25 02:54:51;;;;;;;;;;;7.60;99.90;;;;;;5007420;28;19925;-85
2022/04/25 02:57:20;;;;;;;;;;;7.80;99.90;;;;;;5001321;28;19926;-85
2022/04/25 02:59:49;;;;;;;;;;;7.70;99.90;;;;;;4998695;28;19930;-84
2022/04/25 03:02:17;;;;;;;;;;;7.70;99.90;;;;;;4998068;28;20420;-85
2022/04/25 03:04:46;;;;;;;;;;;7.70;99.90;;;;;;5005027;28;19933;-85
2022/04/25 03:07:14;;;;;;;;;;;7.70;99.90;;;;;;4993534;28;19930;-83
2022/04/25 03:09:42;;;;;;;;;;;7.70;99.90;;;;;;5003696;28;19932;-86
2022/04/25 03:12:40;;;;;;;;;;;7.70;99.90;;;;;;4972010;28;19926;-84
2022/04/25 03:15:11;;;;;;;;;;;7.70;99.90;;;;;;4986248;28;20390;-85
2022/04/25 03:17:39;;;;;;;;;;;7.70;99.90;;;;;;5005596;28;19933;-86
2022/04/25 03:20:08;;;;;;;;;;;7.70;99.90;;;;;;5000788;28;19936;-87
2022/04/25 03:22:35;;;;;;;;;;;7.70;99.90;;;;;;5015742;28;19936;-85
2022/04/25 03:25:05;;;;;;;;;;;7.70;99.90;;;;;;5018644;28;20001;-85
2022/04/25 03:27:32;;;;;;;;;;;7.70;99.90;;;;;;4985332;28;19951;-84
2022/04/25 03:30:00;;;;;;;;;;;7.60;99.90;;;;;;5018157;28;19926;-85
2022/04/25 03:32:28;;;;;;;;;;;7.60;99.90;;;;;;4690878;28;9999845;-85
2022/04/25 03:34:57;;;;;;;;;;;7.60;99.90;;;;;;4998806;28;19926;-85
2022/04/25 03:37:26;;;;;;;;;;;7.60;99.90;;;;;;4985818;28;19925;-86
2022/04/25 03:39:54;;;;;;;;;;;7.60;99.90;;;;;;5001767;28;20395;-86
2022/04/25 03:42:24;;;;;;;;;;;7.60;99.90;;;;;;5017530;28;19929;-85
2022/04/25 03:44:51;;;;;;;;;;;7.60;99.90;;;;;;5018713;28;19926;-86
2022/04/25 03:47:19;;;;;;;;;;;7.60;99.90;;;;;;5015819;28;20419;-86
2022/04/25 03:49:49;;;;;;;;;;;7.60;99.90;;;;;;4963825;28;20405;-85
2022/04/25 03:52:17;;;;;;;;;;;7.40;99.90;;;;;;4972619;28;19934;-85
2022/04/25 03:57:30;;;;;;;;;;;7.60;99.90;;;;;;4979637;28;19933;-85
2022/04/25 03:59:58;;;;;;;;;;;7.60;99.90;;;;;;4978881;28;19930;-86
2022/04/25 04:02:26;;;;;;;;;;;7.60;99.90;;;;;;4992412;28;19957;-85
2022/04/25 04:05:02;;;;;;;;;;;7.50;99.90;;;;;;4961931;29;20405;-84
2022/04/25 04:07:30;;;;;;;;;;;7.60;99.90;;;;;;4975485;28;20293;-84
2022/04/25 04:09:58;;;;;;;;;;;7.50;99.90;;;;;;4960627;28;19934;-84
2022/04/25 04:12:32;;;;;;;;;;;7.50;99.90;;;;;;4975318;28;19931;-84
2022/04/25 04:15:02;;;;;;;;;;;7.40;99.90;;;;;;4961769;29;19927;-84
2022/04/25 04:17:32;;;;;;;;;;;7.20;99.90;;;;;;4976689;28;19933;-85
2022/04/25 04:20:03;;;;;;;;;;;7.30;99.90;;;;;;4947403;29;20005;-85
2022/04/25 04:22:31;;;;;;;;;;;7.20;99.90;;;;;;4968032;28;19954;-84
2022/04/25 04:25:03;;;;;;;;;;;7.20;99.90;;;;;;4980036;28;19927;-84
2022/04/25 04:27:31;;;;;;;;;;;7.20;99.90;;;;;;4977208;28;20420;-84
2022/04/25 04:30:06;;;;;;;;;;;7.10;99.90;;;;;;4966846;29;19927;-85
2022/04/25 04:32:34;;;;;;;;;;;7.10;99.90;;;;;;4964258;28;20449;-85
2022/04/25 04:35:02;;;;;;;;;;;7.20;99.90;;;;;;4964881;28;19933;-84
2022/04/25 04:37:33;;;;;;;;;;;7.00;99.90;;;;;;4989709;28;19926;-84
2022/04/25 04:42:51;;;;;;;;;;;6.90;99.90;;;;;;4971266;29;19930;-84
2022/04/25 04:45:22;;;;;;;;;;;6.90;99.90;;;;;;4976574;28;19932;-85
2022/04/25 04:47:53;;;;;;;;;;;7.00;99.90;;;;;;4969222;28;19933;-84
2022/04/25 04:50:25;;;;;;;;;;;7.00;99.90;;;;;;4966146;29;19927;-84
2022/04/25 04:52:59;;;;;;;;;;;7.00;99.90;;;;;;4947100;28;19926;-85
2022/04/25 04:55:31;;;;;;;;;;;7.50;99.90;;;;;;4963435;29;19933;-84
2022/04/25 04:57:59;;;;;;;;;;;7.10;99.90;;;;;;4961982;28;19934;-84
2022/04/25 05:00:29;;;;;;;;;;;7.20;99.90;;;;;;4971425;28;19930;-85
2022/04/25 05:03:04;;;;;;;;;;;7.30;99.90;;;;;;4946992;29;19931;-87
2022/04/25 05:05:33;;;;;;;;;;;7.30;99.90;;;;;;4950292;28;19926;-85
2022/04/25 05:08:04;;;;;;;;;;;7.40;99.90;;;;;;4980466;28;20294;-83
2022/04/25 05:10:32;;;;;;;;;;;7.40;99.90;;;;;;4981587;28;19934;-84
2022/04/25 05:13:00;;;;;;;;;;;7.40;99.90;;;;;;4981396;28;19926;-84
2022/04/25 05:15:29;;;;;;;;;;;7.50;99.90;;;;;;4958879;29;19926;-85
2022/04/25 05:18:00;;;;;;;;;;;7.50;99.90;;;;;;4972557;28;19932;-84
2022/04/25 05:20:29;;;;;;;;;;;7.60;99.90;;;;;;4985705;28;19930;-85
2022/04/25 05:23:05;;;;;;;;;;;7.60;99.90;;;;;;4932304;29;19927;-85
2022/04/25 05:25:35;;;;;;;;;;;7.60;99.90;;;;;;4948718;29;19923;-84
2022/04/25 05:28:04;;;;;;;;;;;7.70;99.90;;;;;;4961306;29;20425;-85
2022/04/25 05:30:32;;;;;;;;;;;8.20;99.90;;;;;;4950077;28;19937;-85
2022/04/25 05:33:02;;;;;;;;;;;7.60;99.90;;;;;;4948427;28;20425;-83
2022/04/25 05:35:32;;;;;;;;;;;7.60;99.90;;;;;;4929573;29;19926;-85
2022/04/25 05:38:00;;;;;;;;;;;7.60;99.90;;;;;;4960534;28;20746;-84
2022/04/25 05:40:29;;;;;;;;;;;7.60;99.90;;;;;;4989894;28;19922;-86
2022/04/25 05:42:58;;;;;;;;;;;7.50;99.90;;;;;;4990226;28;20465;-85
2022/04/25 05:45:27;;;;;;;;;;;7.50;99.90;;;;;;4984268;28;19930;-86
2022/04/25 05:47:56;;;;;;;;;;;7.40;99.90;;;;;;4976694;28;19926;-87
2022/04/25 05:53:16;;;;;;;;;;;6.60;99.90;;;;;;5016424;28;19936;-84
2022/04/25 05:55:43;;;;;;;;;;;7.20;99.90;;;;;;4978858;28;19933;-87
2022/04/25 05:58:12;;;;;;;;;;;7.50;99.90;;;;;;4963771;28;19941;-85
2022/04/25 06:00:41;;;;;;;;;;;7.30;99.90;;;;;;4985447;28;19937;-89
2022/04/25 06:03:08;;;;;;;;;;;7.50;99.90;;;;;;5004367;28;19941;-84
2022/04/25 06:05:37;;;;;;;;;;;7.50;99.90;;;;;;4968805;28;20420;-86
2022/04/25 06:08:06;;;;;;;;;;;7.50;99.90;;;;;;4996095;28;20412;-86
2022/04/25 06:10:34;;;;;;;;;;;7.60;99.90;;;;;;4984408;28;20706;-83
2022/04/25 06:13:02;;;;;;;;;;;7.70;99.90;;;;;;4977918;28;19933;-85
2022/04/25 06:15:31;;;;;;;;;;;7.70;99.90;;;;;;5000737;28;19933;-86
2022/04/25 06:18:01;;;;;;;;;;;7.80;99.90;;;;;;4974426;28;19926;-84
2022/04/25 06:20:30;;;;;;;;;;;7.80;99.90;;;;;;4979986;28;19933;-87
2022/04/25 06:23:02;;;;;;;;;;;7.90;99.90;;;;;;4968681;28;19925;-85
2022/04/25 06:25:31;;;;;;;;;;;8.00;99.90;;;;;;4980547;28;19929;-85
2022/04/25 06:28:00;;;;;;;;;;;8.10;99.90;;;;;;4996616;28;19941;-85
2022/04/25 06:30:31;;;;;;;;;;;8.20;99.90;;;;;;4996078;28;19914;-85
2022/04/25 06:33:00;;;;;;;;;;;8.30;99.90;;;;;;5004387;28;20008;-86
2022/04/25 06:35:29;;;;;;;;;;;8.40;99.90;;;;;;5006470;28;19937;-86
2022/04/25 06:37:57;;;;;;;;;;;8.40;99.90;;;;;;5003943;28;20397;-86
2022/04/25 06:40:24;;;;;;;;;;;8.50;99.90;;;;;;5006573;28;20041;-86
2022/04/25 06:42:53;;;;;;;;;;;8.60;99.90;;;;;;4994359;28;19933;-86
2022/04/25 06:45:21;;;;;;;;;;;8.60;99.90;;;;;;5022409;28;19922;-87
2022/04/25 06:47:50;;;;;;;;;;;8.70;99.90;;;;;;4974139;28;19925;-87
2022/04/25 06:50:19;;;;;;;;;;;8.80;99.90;;;;;;4979995;28;19933;-88
2022/04/25 06:52:47;;;;;;;;;;;8.90;99.90;;;;;;5003315;28;19926;-87
2022/04/25 06:55:16;;;;;;;;;;;9.00;99.90;;;;;;4972024;28;19930;-85
2022/04/25 06:57:45;;;;;;;;;;;9.10;99.90;;;;;;4975898;28;19925;-87
2022/04/25 07:00:13;;;;;;;;;;;9.20;99.90;;;;;;4991415;28;19926;-88
2022/04/25 07:03:02;;;;;;;;;;;9.20;99.90;;;;;;4994429;28;19941;-86
2022/04/25 07:05:32;;;;;;;;;;;9.30;99.90;;;;;;5008846;28;19930;-86
2022/04/25 07:08:01;;;;;;;;;;;9.40;99.90;;;;;;4995853;28;19930;-87
2022/04/25 07:10:30;;;;;;;;;;;9.40;99.90;;;;;;4971536;28;19937;-87
2022/04/25 07:13:00;;;;;;;;;;;9.40;99.90;;;;;;4983607;28;20320;-85
2022/04/25 07:15:29;;;;;;;;;;;9.80;99.90;;;;;;4990445;28;19936;-88
2022/04/25 07:17:57;;;;;;;;;;;9.50;99.90;;;;;;4977346;28;19929;-87
2022/04/25 07:20:28;;;;;;;;;;;9.50;99.90;;;;;;5010739;28;19933;-87
2022/04/25 07:31:17;;;;;;;;;;;9.60;99.90;;;;;;4988636;28;19936;-88
2022/04/25 07:33:46;;;;;;;;;;;9.10;99.90;;;;;;5003478;28;19926;-87
2022/04/25 07:36:18;;;;;;;;;;;9.60;99.90;;;;;;5002745;28;19929;-86
2022/04/25 07:38:47;;;;;;;;;;;9.60;99.90;;;;;;4968999;28;20393;-86
2022/04/25 07:41:18;;;;;;;;;;;9.60;99.90;;;;;;5002772;28;20300;-88
2022/04/25 07:44:05;;;;;;;;;;;9.60;99.90;;;;;;4986631;28;19936;-86
2022/04/25 07:46:36;;;;;;;;;;;9.60;99.90;;;;;;4998203;28;19937;-87
2022/04/25 07:49:07;;;;;;;;;;;9.70;99.90;;;;;;4968760;28;19940;-88
2022/04/25 07:51:40;;;;;;;;;;;9.00;99.90;;;;;;4957392;29;19926;-87
2022/04/25 07:54:09;;;;;;;;;;;9.80;99.90;;;;;;4962543;28;19938;-87
2022/04/25 07:56:38;;;;;;;;;;;9.70;99.90;;;;;;4962283;28;19927;-87
2022/04/25 07:59:05;;;;;;;;;;;9.70;99.90;;;;;;4961783;29;20035;-87
2022/04/25 08:01:36;;;;;;;;;;;9.60;99.90;;;;;;4964328;28;19927;-87
2022/04/25 08:04:08;;;;;;;;;;;9.80;99.90;;;;;;4969383;29;19943;-88
2022/04/25 08:06:37;;;;;;;;;;;9.80;99.90;;;;;;4979776;28;19938;-87
2022/04/25 08:09:07;;;;;;;;;;;9.80;99.90;;;;;;4967848;28;20610;-86
2022/04/25 08:11:36;;;;;;;;;;;9.90;99.90;;;;;;4966331;28;19927;-88
2022/04/25 08:19:39;;;;;;;;;;;10.10;99.90;;;;;;4975957;28;20368;-87
2022/04/25 08:22:09;;;;;;;;;;;10.20;99.90;;;;;;4945730;29;19926;-88
2022/04/25 08:24:38;;;;;;;;;;;10.30;99.90;;;;;;4951106;29;19926;-86
2022/04/25 08:27:08;;;;;;;;;;;10.30;99.90;;;;;;4968024;28;19926;-87
2022/04/25 08:29:38;;;;;;;;;;;10.40;99.90;;;;;;4965767;29;19914;-87
2022/04/25 08:32:06;;;;;;;;;;;10.40;99.90;;;;;;4948488;29;19927;-87
2022/04/25 08:34:33;;;;;;;;;;;10.40;99.90;;;;;;4951649;29;19934;-87
2022/04/25 08:37:02;;;;;;;;;;;10.40;99.90;;;;;;4958415;29;19926;-86
2022/04/25 08:39:29;;;;;;;;;;;10.40;99.90;;;;;;4960432;29;19948;-86
2022/04/25 08:41:59;;;;;;;;;;;10.40;99.90;;;;;;4960305;29;20305;-88
2022/04/25 08:44:31;;;;;;;;;;;10.50;99.90;;;;;;4979910;28;19926;-87
2022/04/25 08:47:02;;;;;;;;;;;11.60;99.90;;;;;;4969955;29;19930;-87
2022/04/25 08:49:31;;;;;;;;;;;10.50;99.90;;;;;;4973430;28;19930;-85
2022/04/25 08:52:09;;;;;;;;;;;10.70;99.90;;;;;;4985822;28;19926;-89
2022/04/25 08:54:37;;;;;;;;;;;10.70;99.90;;;;;;4963101;28;19931;-87
2022/04/25 08:57:07;;;;;;;;;;;10.80;99.90;;;;;;4969895;28;19938;-87
2022/04/25 08:59:37;;;;;;;;;;;10.80;99.90;;;;;;4944038;29;19927;-86
2022/04/25 09:02:05;;;;;;;;;;;10.90;99.90;;;;;;4963274;28;19940;-86
2022/04/25 09:04:34;;;;;;;;;;;11.00;99.90;;;;;;4940135;29;19937;-88
2022/04/25 09:07:03;;;;;;;;;;;11.10;99.90;;;;;;4956066;28;20239;-86
2022/04/25 09:09:30;;;;;;;;;;;11.20;99.80;;;;;;4961856;28;20008;-86
2022/04/25 09:12:11;;;;;;;;;;;11.30;99.70;;;;;;4971250;28;19931;-87
2022/04/25 09:14:45;;;;;;;;;;;11.40;99.20;;;;;;4965666;29;19940;-87
2022/04/25 09:17:35;;;;;;;;;;;11.50;99.30;;;;;;4961521;29;19930;-87
2022/04/25 09:20:03;;;;;;;;;;;11.60;99.20;;;;;;4970242;28;19926;-87
2022/04/25 09:22:33;;;;;;;;;;;11.60;98.80;;;;;;4973922;28;19942;-86
2022/04/25 09:25:04;;;;;;;;;;;11.70;98.50;;;;;;4951612;29;19941;-86
2022/04/25 09:28:07;;;;;;;;;;;11.70;98.70;;;;;;4952096;29;19931;-87
2022/04/25 09:30:35;;;;;;;;;;;11.80;98.20;;;;;;4963888;28;20294;-87
2022/04/25 09:33:03;;;;;;;;;;;11.90;98.40;;;;;;4968431;28;19926;-86
2022/04/25 09:35:37;;;;;;;;;;;12.00;98.20;;;;;;4969031;29;19945;-88
2022/04/25 09:38:06;;;;;;;;;;;12.10;98.20;;;;;;4959189;28;19934;-90
2022/04/25 09:40:37;;;;;;;;;;;12.10;97.70;;;;;;4961234;28;20331;-87
2022/04/25 09:43:27;;;;;;;;;;;12.50;98.00;;;;;;4979501;28;19938;-88
2022/04/25 09:46:02;;;;;;;;;;;12.40;97.70;;;;;;4954313;28;20405;-90
2022/04/25 09:48:30;;;;;;;;;;;12.40;97.30;;;;;;4964866;28;20036;-89
2022/04/25 09:51:08;;;;;;;;;;;12.70;97.50;;;;;;5002241;28;20094;-88
2022/04/25 09:53:50;;;;;;;;;;;12.40;97.40;;;;;;4971427;28;19926;-87
2022/04/25 09:56:20;;;;;;;;;;;12.40;97.30;;;;;;4962442;28;19926;-87
2022/04/25 09:59:05;;;;;;;;;;;12.40;97.30;;;;;;4990915;28;19945;-89
2022/04/25 10:01:35;;;;;;;;;;;12.40;97.30;;;;;;5004510;28;19934;-88
2022/04/25 10:04:06;;;;;;;;;;;12.50;97.20;;;;;;4990634;28;19938;-90
2022/04/25 10:06:34;;;;;;;;;;;12.50;96.80;;;;;;5007164;28;19930;-87
2022/04/25 10:09:03;;;;;;;;;;;12.50;96.60;;;;;;4991149;28;21213;-86
2022/04/25 10:11:32;;;;;;;;;;;12.60;96.90;;;;;;4997106;28;19933;-85
2022/04/25 10:14:02;;;;;;;;;;;12.60;96.90;;;;;;4999795;28;19998;-87
2022/04/25 10:16:32;;;;;;;;;;;12.70;97.10;;;;;;4985239;28;19941;-91
2022/04/25 10:19:01;;;;;;;;;;;12.70;96.30;;;;;;4639573;28;10000296;-89
2022/04/25 10:21:30;;;;;;;;;;;12.70;96.60;;;;;;4980096;28;20393;-90
2022/04/25 10:23:59;;;;;;;;;;;12.80;96.30;;;;;;4972382;28;19929;-88
2022/04/25 10:26:30;;;;;;;;;;;13.00;96.30;;;;;;5004373;28;19930;-87
2022/04/25 10:29:02;;;;;;;;;;;12.90;96.50;;;;;;5004876;28;19926;-88
2022/04/25 10:31:41;;;;;;;;;;;13.00;96.00;;;;;;4973478;28;19930;-87
2022/04/25 10:34:10;;;;;;;;;;;13.30;95.90;;;;;;4985035;28;19930;-90
2022/04/25 10:36:37;;;;;;;;;;;13.70;95.70;;;;;;5001594;28;20278;-88
2022/04/25 10:39:14;;;;;;;;;;;13.80;95.10;;;;;;5000721;28;19925;-87
2022/04/25 10:44:42;;;;;;;;;;;14.00;94.50;;;;;;5004278;28;19930;-88
2022/04/25 10:47:19;;;;;;;;;;;14.20;94.40;;;;;;5001818;28;19926;-88
2022/04/25 10:49:59;;;;;;;;;;;14.20;93.60;;;;;;4983651;28;19926;-88
2022/04/25 10:52:42;;;;;;;;;;;14.30;94.00;;;;;;5000771;28;19926;-90
2022/04/25 10:55:20;;;;;;;;;;;14.50;94.20;;;;;;4994513;28;19940;-88
2022/04/25 10:58:07;;;;;;;;;;;14.60;93.60;;;;;;5000940;28;19926;-86
2022/04/25 11:00:46;;;;;;;;;;;14.50;93.20;;;;;;4970244;28;19934;-87
2022/04/25 11:03:19;;;;;;;;;;;14.40;93.20;;;;;;4989392;28;20573;-88
2022/04/25 11:05:48;;;;;;;;;;;14.30;93.30;;;;;;4984835;28;19926;-87
2022/04/25 11:08:16;;;;;;;;;;;14.40;93.40;;;;;;4982190;28;19927;-86
2022/04/25 11:10:45;;;;;;;;;;;14.50;93.50;;;;;;4980522;28;19946;-89
2022/04/25 11:13:20;;;;;;;;;;;14.60;93.70;;;;;;4979964;28;19937;-86
2022/04/25 11:15:56;;;;;;;;;;;14.80;93.10;;;;;;4982955;28;19933;-88
2022/04/25 11:18:41;;;;;;;;;;;14.90;92.90;;;;;;4985035;28;20024;-87
2022/04/25 11:21:12;;;;;;;;;;;15.00;92.10;;;;;;4971358;28;19933;-89
2022/04/25 11:23:43;;;;;;;;;;;15.20;92.30;;;;;;4978755;28;19927;-88
2022/04/25 11:26:41;;;;;;;;;;;15.50;92.30;;;;;;4978480;28;19935;-87
2022/04/25 11:29:19;;;;;;;;;;;15.30;91.50;;;;;;4984786;28;19932;-88
2022/04/25 11:32:24;;;;;;;;;;;15.30;92.00;;;;;;4969802;28;20540;-87
2022/04/25 11:34:57;;;;;;;;;;;15.20;91.60;;;;;;4988301;28;19926;-86
2022/04/25 11:37:32;;;;;;;;;;;15.10;91.90;;;;;;4989567;28;19941;-88
2022/04/25 11:40:04;;;;;;;;;;;15.40;91.80;;;;;;4990233;28;19929;-85
2022/04/25 11:42:47;;;;;;;;;;;15.10;91.50;;;;;;4985471;28;19922;-86
2022/04/25 11:45:17;;;;;;;;;;;14.70;91.30;;;;;;5004158;28;19927;-86
2022/04/25 11:47:45;;;;;;;;;;;14.90;92.30;;;;;;4990230;28;19926;-87
2022/04/25 11:50:13;;;;;;;;;;;14.50;91.80;;;;;;4971391;28;19941;-88
2022/04/25 11:52:51;;;;;;;;;;;14.50;92.20;;;;;;4928601;29;19927;-89
2022/04/25 11:55:31;;;;;;;;;;;14.30;92.50;;;;;;4937735;29;19926;-88
2022/04/25 11:58:03;;;;;;;;;;;14.40;92.70;;;;;;4962872;28;19934;-87
2022/04/25 12:00:34;;;;;;;;;;;14.40;92.40;;;;;;4981710;28;19934;-87
2022/04/25 12:03:02;;;;;;;;;;;14.40;92.00;;;;;;4958016;28;19927;-87
2022/04/25 12:05:32;;;;;;;;;;;14.30;92.20;;;;;;4975183;28;19931;-88
2022/04/25 12:16:33;;;;;;;;;;;14.40;91.70;;;;;;4953683;28;19930;-87
2022/04/25 12:19:06;;;;;;;;;;;14.60;91.20;;;;;;4965836;28;19927;-88
2022/04/25 12:21:47;;;;;;;;;;;14.70;91.10;;;;;;4964412;28;19941;-89
2022/04/25 12:24:26;;;;;;;;;;;15.00;90.40;;;;;;4938795;28;20563;-91
2022/04/25 12:27:10;;;;;;;;;;;14.60;88.80;;;;;;4966830;28;19962;-87
2022/04/25 12:29:59;;;;;;;;;;;15.40;89.20;;;;;;4962487;28;19931;-86
2022/04/25 12:32:37;;;;;;;;;;;15.40;85.70;;;;;;4963812;28;19938;-88
2022/04/25 12:35:17;;;;;;;;;;;15.70;86.60;;;;;;4958919;28;19942;-90
2022/04/25 12:37:44;;;;;;;;;;;15.80;85.90;;;;;;4943901;29;19942;-87
2022/04/25 12:40:13;;;;;;;;;;;15.90;85.80;;;;;;4946462;29;19927;-89
2022/04/25 12:42:50;;;;;;;;;;;16.10;85.90;;;;;;4960920;29;19930;-88
2022/04/25 12:45:23;;;;;;;;;;;16.20;85.60;;;;;;4951013;28;19926;-87
2022/04/25 12:47:55;;;;;;;;;;;16.40;85.90;;;;;;4962030;29;20264;-87
2022/04/25 12:50:51;;;;;;;;;;;16.40;85.10;;;;;;4954691;28;19933;-90
2022/04/25 12:53:46;;;;;;;;;;;16.50;84.80;;;;;;4960425;29;19934;-90
2022/04/25 12:56:21;;;;;;;;;;;16.60;82.50;;;;;;4961223;29;19934;-89
2022/04/25 12:58:51;;;;;;;;;;;16.90;84.50;;;;;;4940898;29;19926;-89
2022/04/25 13:01:26;;;;;;;;;;;17.00;84.30;;;;;;4968841;28;20003;-89
2022/04/25 13:04:19;;;;;;;;;;;17.00;83.40;;;;;;4952212;29;19926;-89
2022/04/25 13:06:47;;;;;;;;;;;16.90;82.20;;;;;;4946198;29;19927;-87
2022/04/25 13:09:18;;;;;;;;;;;16.60;86.40;;;;;;4954297;29;19934;-89
2022/04/25 13:11:54;;;;;;;;;;;16.20;88.90;;;;;;4949325;29;19937;-90
2022/04/25 13:14:22;;;;;;;;;;;15.80;91.20;;;;;;4953680;29;19930;-88
2022/04/25 13:16:50;;;;;;;;;;;15.40;92.50;;;;;;4964515;28;20365;-89
2022/04/25 13:19:18;;;;;;;;;;;15.00;94.10;;;;;;4968407;29;19931;-87
2022/04/25 13:21:48;;;;;;;;;;;14.70;93.40;;;;;;4978154;28;19927;-88
2022/04/25 13:24:17;;;;;;;;;;;14.40;93.20;;;;;;4962249;28;20096;-89
2022/04/25 13:26:48;;;;;;;;;;;14.20;94.00;;;;;;4951672;29;20438;-88
2022/04/25 13:29:16;;;;;;;;;;;14.10;95.30;;;;;;4938972;29;19934;-86
2022/04/25 13:31:46;;;;;;;;;;;14.10;95.30;;;;;;4931192;29;19931;-89
2022/04/25 13:34:39;;;;;;;;;;;14.90;95.70;;;;;;4928137;29;20401;-89
2022/04/25 13:37:31;;;;;;;;;;;14.30;95.10;;;;;;4967479;28;19934;-88
2022/04/25 13:40:28;;;;;;;;;;;14.40;94.50;;;;;;4972726;29;19924;-88
2022/04/25 13:46:08;;;;;;;;;;;14.90;94.40;;;;;;5024707;28;19920;-86
2022/04/25 13:48:56;;;;;;;;;;;15.10;93.60;;;;;;5015292;28;20032;-88
2022/04/25 13:51:38;;;;;;;;;;;15.40;93.90;;;;;;4998968;28;19936;-88
2022/04/25 13:54:44;;;;;;;;;;;15.50;93.70;;;;;;5019956;28;19926;-88
2022/04/25 13:57:19;;;;;;;;;;;15.60;93.20;;;;;;4996477;28;19925;-89
2022/04/25 13:59:56;;;;;;;;;;;15.30;93.20;;;;;;5017632;28;19932;-87
2022/04/25 14:05:50;;;;;;;;;;;15.30;92.60;;;;;;4979783;28;20401;-89
2022/04/25 14:08:32;;;;;;;;;;;15.20;92.60;;;;;;4989410;28;19926;-89
2022/04/25 14:11:01;;;;;;;;;;;14.90;92.80;;;;;;4982483;28;19937;-85
2022/04/25 14:13:31;;;;;;;;;;;14.90;92.70;;;;;;5004968;28;20307;-89
2022/04/25 14:16:01;;;;;;;;;;;14.90;92.70;;;;;;4971006;28;19933;-88
2022/04/25 14:18:30;;;;;;;;;;;14.90;92.90;;;;;;4968902;28;19930;-88
2022/04/25 14:21:10;;;;;;;;;;;14.90;92.90;;;;;;4954297;28;19938;-91
2022/04/25 14:23:41;;;;;;;;;;;15.00;92.60;;;;;;4984579;28;19929;-90
2022/04/25 14:26:09;;;;;;;;;;;15.00;92.80;;;;;;4983446;28;19925;-89
2022/04/25 14:28:40;;;;;;;;;;;15.20;93.00;;;;;;4968674;28;19926;-90
2022/04/25 14:31:30;;;;;;;;;;;15.40;92.90;;;;;;4946321;28;19942;-89
2022/04/25 14:33:59;;;;;;;;;;;15.50;92.50;;;;;;4984457;28;19926;-90
2022/04/25 14:36:30;;;;;;;;;;;15.50;92.90;;;;;;4995850;28;19945;-87
2022/04/25 14:38:58;;;;;;;;;;;15.60;92.50;;;;;;4996141;28;19930;-88
2022/04/25 14:41:30;;;;;;;;;;;15.50;91.90;;;;;;4985534;28;20397;-87
2022/04/25 14:43:59;;;;;;;;;;;15.10;91.80;;;;;;4969579;28;19988;-89
2022/04/25 14:46:35;;;;;;;;;;;15.20;92.10;;;;;;4986012;28;19926;-87
2022/04/25 14:49:05;;;;;;;;;;;15.10;92.50;;;;;;4968013;28;19926;-88
2022/04/25 14:54:24;;;;;;;;;;;15.00;92.40;;;;;;4995482;28;19930;-87
2022/04/25 14:56:58;;;;;;;;;;;15.10;92.60;;;;;;5000232;28;19929;-88
2022/04/25 14:59:29;;;;;;;;;;;15.50;92.70;;;;;;4969850;28;19933;-90
2022/04/25 15:01:59;;;;;;;;;;;15.90;92.40;;;;;;4998778;28;19926;-88
2022/04/25 15:04:30;;;;;;;;;;;16.10;91.40;;;;;;4983996;28;19930;-91
2022/04/25 15:07:00;;;;;;;;;;;16.00;91.10;;;;;;4977961;28;20373;-89
2022/04/25 15:09:57;;;;;;;;;;;15.90;91.20;;;;;;4968078;28;19940;-88
2022/04/25 15:12:26;;;;;;;;;;;15.70;91.30;;;;;;5003629;28;19933;-89
2022/04/25 15:15:12;;;;;;;;;;;15.50;91.80;;;;;;5007211;28;19926;-90
2022/04/25 15:17:42;;;;;;;;;;;15.50;92.00;;;;;;4638742;28;9999966;-89
2022/04/25 15:20:11;;;;;;;;;;;15.50;92.60;;;;;;4972341;28;19933;-89
2022/04/25 15:22:54;;;;;;;;;;;16.00;92.20;;;;;;4973984;28;19926;-86
2022/04/25 15:25:28;;;;;;;;;;;15.70;91.40;;;;;;4992182;28;19929;-87
2022/04/25 15:28:04;;;;;;;;;;;16.00;90.40;;;;;;4991415;28;19930;-89
2022/04/25 15:30:35;;;;;;;;;;;16.40;90.50;;;;;;4971965;28;19936;-84
2022/04/25 15:33:05;;;;;;;;;;;17.10;89.10;;;;;;4969550;28;19926;-91
2022/04/25 15:35:32;;;;;;;;;;;17.90;89.10;;;;;;5005005;28;19929;-89